Time;durP1;ratioP1;P1;durP2;ratioP2;P2;SDS_P1;SDS_P2;PMS_P1;PMS_P2;Temp;Humidity;BMP_temperature;BMP_pressure;BME280_temperature;BME280_humidity;BME280_pressure;Samples;Min_cycle;Max_cycle;Signal;HPM_P1;HPM_P2
2022/01/26 00:06:08;;;;;;;43.90;19.98;;;5.80;99.90;;;;;;5053908;28;20162;-69
2022/01/26 00:08:36;;;;;;;51.25;22.05;;;5.80;99.90;;;;;;5053860;28;20091;-70
2022/01/26 00:11:01;;;;;;;46.85;19.02;;;5.80;99.90;;;;;;5056930;28;20029;-69
2022/01/26 00:13:27;;;;;;;48.50;20.75;;;5.80;99.90;;;;;;5052586;28;20035;-69
2022/01/26 00:15:53;;;;;;;47.75;20.25;;;5.80;99.90;;;;;;5053626;28;20467;-69
2022/01/26 00:18:21;;;;;;;48.85;20.08;;;5.80;99.90;;;;;;5053881;28;20049;-69
2022/01/26 00:20:55;;;;;;;50.47;20.88;;;5.80;99.90;;;;;;5051671;28;20040;-69
2022/01/26 00:23:51;;;;;;;60.42;21.52;;;5.90;99.90;;;;;;5068833;28;20028;-69
2022/01/26 00:26:32;;;;;;;51.22;19.92;;;5.90;99.90;;;;;;5070536;28;20029;-70
2022/01/26 00:29:16;;;;;;;49.72;20.73;;;5.90;99.90;;;;;;5064019;28;20025;-69
2022/01/26 00:33:06;;;;;;;51.85;21.08;;;5.90;99.90;;;;;;5072366;28;20437;-70
2022/01/26 00:42:58;;;;;;;43.03;16.67;;;5.90;99.90;;;;;;5055293;28;20379;-69
2022/01/26 00:45:32;;;;;;;46.03;17.50;;;5.80;99.90;;;;;;5071887;28;20378;-70
2022/01/26 00:47:57;;;;;;;46.25;19.20;;;5.80;99.90;;;;;;5071803;28;20099;-69
2022/01/26 00:50:23;;;;;;;44.03;18.65;;;5.80;99.90;;;;;;5072051;28;20465;-69
2022/01/26 00:52:53;;;;;;;42.78;18.77;;;5.80;99.90;;;;;;5069044;28;20104;-70
2022/01/26 00:55:20;;;;;;;46.58;17.85;;;5.80;99.90;;;;;;5068016;28;20037;-70
2022/01/26 00:57:46;;;;;;;49.30;19.83;;;5.80;99.90;;;;;;5052439;28;20478;-69
2022/01/26 01:00:23;;;;;;;45.03;18.55;;;5.80;99.90;;;;;;5053278;28;20371;-69
2022/01/26 01:02:50;;;;;;;47.80;17.92;;;5.70;99.90;;;;;;5053380;28;20036;-68
2022/01/26 01:05:21;;;;;;;46.72;19.33;;;5.70;99.90;;;;;;5037014;28;20059;-69
2022/01/26 01:07:50;;;;;;;47.75;19.00;;;5.70;99.90;;;;;;5070803;28;20029;-70
2022/01/26 01:10:20;;;;;;;44.38;18.35;;;5.70;99.90;;;;;;5070398;28;20029;-70
2022/01/26 01:12:46;;;;;;;45.50;17.63;;;5.70;99.90;;;;;;5070904;28;20040;-69
2022/01/26 01:15:13;;;;;;;48.58;18.23;;;5.70;99.90;;;;;;5074614;28;20040;-69
2022/01/26 01:17:44;;;;;;;45.00;18.48;;;5.60;99.90;;;;;;5068512;28;20020;-69
2022/01/26 01:22:54;;;;;;;47.33;20.58;;;5.60;99.90;;;;;;5072759;28;20040;-69
2022/01/26 01:31:00;;;;;;;47.00;19.67;;;5.70;99.90;;;;;;5013097;28;20644;-70
2022/01/26 01:33:32;;;;;;;47.63;19.67;;;5.70;99.90;;;;;;5013633;28;20034;-71
2022/01/26 01:35:59;;;;;;;45.50;19.90;;;5.70;99.90;;;;;;5037016;28;20475;-69
2022/01/26 01:38:28;;;;;;;49.08;20.95;;;5.70;99.90;;;;;;5056576;28;20029;-71
2022/01/26 01:40:54;;;;;;;52.00;20.83;;;5.80;99.90;;;;;;5070539;28;20036;-70
2022/01/26 01:43:22;;;;;;;46.92;19.58;;;5.80;99.90;;;;;;5055582;28;20429;-69
2022/01/26 01:45:50;;;;;;;53.47;22.33;;;5.80;99.90;;;;;;5058609;28;20071;-69
2022/01/26 01:48:20;;;;;;;52.40;22.52;;;5.70;99.90;;;;;;5055209;28;20044;-69
2022/01/26 01:50:48;;;;;;;53.05;23.05;;;5.70;99.90;;;;;;5056341;28;20032;-70
2022/01/26 01:53:17;;;;;;;52.47;22.27;;;5.80;99.90;;;;;;5054768;28;20064;-70
2022/01/26 01:55:49;;;;;;;52.45;22.20;;;5.90;99.90;;;;;;5055028;28;20072;-70
2022/01/26 01:58:16;;;;;;;52.33;23.25;;;5.90;99.90;;;;;;5055254;28;20120;-70
2022/01/26 02:00:42;;;;;;;54.47;23.05;;;5.90;99.90;;;;;;5055081;28;20037;-69
2022/01/26 02:03:08;;;;;;;51.15;22.13;;;6.00;99.90;;;;;;5054921;28;20037;-70
2022/01/26 02:05:33;;;;;;;54.63;24.30;;;6.00;99.90;;;;;;5054812;28;20028;-69
2022/01/26 02:08:00;;;;;;;52.83;21.15;;;6.00;99.90;;;;;;5055217;28;20107;-69
2022/01/26 02:10:28;;;;;;;56.42;21.98;;;6.00;99.90;;;;;;5054408;28;20051;-69
2022/01/26 02:12:56;;;;;;;50.55;20.60;;;5.80;99.90;;;;;;5055070;28;20466;-70
2022/01/26 02:15:28;;;;;;;64.85;26.73;;;5.70;99.90;;;;;;5054833;28;20045;-69
2022/01/26 02:53:56;;;;;;;72.10;27.38;;;5.20;99.90;;;;;;5026872;28;20095;-69
2022/01/26 02:59:11;;;;;;;82.40;34.13;;;5.10;99.90;;;;;;5062406;28;20381;-69
2022/01/26 03:01:52;;;;;;;61.33;24.33;;;5.10;99.90;;;;;;5065666;28;20040;-70
2022/01/26 03:06:55;;;;;;;77.50;29.35;;;5.20;99.90;;;;;;5054259;28;20112;-70
2022/01/26 03:09:27;;;;;;;79.70;30.15;;;5.20;99.90;;;;;;5070593;28;20056;-70
2022/01/26 03:11:53;;;;;;;76.05;30.98;;;5.10;99.90;;;;;;5073758;28;20029;-69
2022/01/26 03:14:34;;;;;;;83.28;33.58;;;5.10;99.90;;;;;;5045737;28;20323;-70
2022/01/26 03:17:09;;;;;;;87.93;33.83;;;5.10;99.90;;;;;;5054227;28;20033;-70
2022/01/26 03:19:39;;;;;;;79.95;31.10;;;5.10;99.90;;;;;;5035683;28;20387;-70
2022/01/26 03:30:27;;;;;;;80.40;31.30;;;5.20;99.90;;;;;;5053349;28;20051;-69
2022/01/26 03:35:39;;;;;;;88.90;33.78;;;5.10;99.90;;;;;;5065027;28;20467;-70
2022/01/26 03:38:05;;;;;;;84.35;35.17;;;5.20;99.90;;;;;;5064737;28;20046;-69
2022/01/26 03:40:34;;;;;;;81.80;31.83;;;5.20;99.90;;;;;;5069674;28;20111;-69
2022/01/26 03:42:59;;;;;;;80.97;32.72;;;5.20;99.90;;;;;;5072107;28;20028;-70
2022/01/26 03:45:26;;;;;;;78.40;31.17;;;5.30;99.90;;;;;;5067255;28;20021;-69
2022/01/26 03:47:53;;;;;;;88.57;34.63;;;5.40;99.90;;;;;;5053056;28;20025;-69
2022/01/26 03:50:19;;;;;;;88.82;33.50;;;5.40;99.90;;;;;;5055105;28;20028;-70
2022/01/26 03:52:44;;;;;;;87.53;32.83;;;5.50;99.90;;;;;;5073364;28;20381;-69
2022/01/26 03:55:10;;;;;;;82.57;32.75;;;5.60;99.90;;;;;;5072351;28;20040;-70
2022/01/26 03:57:36;;;;;;;81.18;32.15;;;5.60;99.90;;;;;;5063986;28;20386;-69
2022/01/26 04:00:03;;;;;;;84.72;33.25;;;5.70;99.90;;;;;;5058213;28;20052;-70
2022/01/26 04:02:29;;;;;;;83.53;31.95;;;5.70;99.90;;;;;;5072730;28;20029;-70
2022/01/26 04:04:59;;;;;;;79.13;33.25;;;5.80;99.90;;;;;;5054684;28;20031;-69
2022/01/26 04:07:25;;;;;;;81.20;32.10;;;5.80;99.90;;;;;;5065644;28;20493;-70
2022/01/26 04:09:50;;;;;;;78.18;31.88;;;5.90;99.90;;;;;;5053761;28;20033;-69
2022/01/26 04:12:16;;;;;;;74.65;30.05;;;5.80;99.90;;;;;;5053765;28;20028;-70
2022/01/26 04:14:47;;;;;;;87.47;31.80;;;5.80;99.90;;;;;;5061289;28;20115;-70
2022/01/26 04:17:13;;;;;;;80.82;30.75;;;5.70;99.90;;;;;;5058225;28;20056;-71
2022/01/26 04:19:40;;;;;;;70.88;27.85;;;5.70;99.90;;;;;;5054309;28;20197;-69
2022/01/26 04:24:46;;;;;;;81.97;31.67;;;5.60;99.90;;;;;;5071924;28;20036;-70
2022/01/26 04:29:37;;;;;;;82.05;32.97;;;5.60;99.90;;;;;;5053600;28;20025;-69
2022/01/26 04:32:05;;;;;;;84.38;34.33;;;5.60;99.90;;;;;;5052449;28;20106;-69
2022/01/26 04:34:33;;;;;;;85.85;34.58;;;5.70;99.90;;;;;;5053330;28;20107;-70
2022/01/26 04:37:07;;;;;;;82.10;30.60;;;5.70;99.90;;;;;;5052417;28;20455;-70
2022/01/26 04:39:40;;;;;;;85.10;31.52;;;5.70;99.90;;;;;;5052397;28;20039;-68
2022/01/26 04:42:12;;;;;;;80.53;30.42;;;5.70;99.90;;;;;;5060872;28;20100;-70
2022/01/26 04:44:47;;;;;;;83.72;31.63;;;5.70;99.90;;;;;;5071348;28;20117;-70
2022/01/26 04:47:13;;;;;;;78.65;30.30;;;5.70;99.90;;;;;;5052153;28;20021;-69
2022/01/26 04:49:39;;;;;;;72.53;28.15;;;5.70;99.90;;;;;;5056148;28;20060;-70
2022/01/26 04:52:04;;;;;;;75.75;29.63;;;5.70;99.90;;;;;;5072689;28;20100;-69
2022/01/26 04:54:30;;;;;;;75.22;28.48;;;5.80;99.90;;;;;;5078779;28;20110;-70
2022/01/26 04:56:56;;;;;;;73.32;26.98;;;5.90;99.90;;;;;;5059248;28;20037;-69
2022/01/26 04:59:21;;;;;;;56.75;23.10;;;5.90;99.90;;;;;;5075525;28;20067;-69
2022/01/26 05:01:47;;;;;;;46.75;19.40;;;6.00;99.90;;;;;;5076248;28;20481;-69
2022/01/26 05:04:13;;;;;;;38.90;15.43;;;6.10;99.90;;;;;;5058740;28;20087;-70
2022/01/26 05:06:38;;;;;;;43.50;17.40;;;6.10;99.90;;;;;;5069711;28;20040;-69
2022/01/26 05:09:04;;;;;;;36.95;15.00;;;6.20;99.90;;;;;;5043405;28;20025;-69
2022/01/26 05:11:42;;;;;;;39.55;15.57;;;6.30;99.90;;;;;;5078445;28;20104;-69
2022/01/26 05:14:07;;;;;;;38.72;15.13;;;6.30;99.90;;;;;;5077243;28;20032;-69
2022/01/26 05:16:34;;;;;;;39.22;15.32;;;6.30;99.90;;;;;;5078304;28;20044;-69
2022/01/26 05:19:00;;;;;;;37.13;15.35;;;6.30;99.90;;;;;;5078412;28;20036;-70
2022/01/26 05:21:28;;;;;;;36.83;15.38;;;6.40;99.90;;;;;;5078403;28;20024;-70
2022/01/26 05:23:54;;;;;;;38.70;15.45;;;6.40;99.90;;;;;;5062743;28;20031;-70
2022/01/26 05:26:20;;;;;;;35.40;14.82;;;6.40;99.90;;;;;;5064219;28;20021;-70
2022/01/26 05:28:45;;;;;;;40.70;16.10;;;6.40;99.90;;;;;;5052885;28;20028;-70
2022/01/26 05:31:11;;;;;;;37.25;15.20;;;6.40;99.90;;;;;;5077851;28;20389;-69
2022/01/26 05:33:37;;;;;;;38.65;15.02;;;6.40;99.90;;;;;;5060307;28;20048;-70
2022/01/26 05:36:03;;;;;;;36.00;15.05;;;6.30;99.90;;;;;;5058868;28;20118;-70
2022/01/26 05:38:29;;;;;;;40.28;16.02;;;6.30;99.90;;;;;;5058187;28;20510;-70
2022/01/26 05:40:56;;;;;;;45.42;18.55;;;6.30;99.90;;;;;;5076003;28;20111;-69
2022/01/26 05:43:22;;;;;;;40.05;17.27;;;6.30;99.90;;;;;;5067139;28;20016;-70
2022/01/26 05:45:51;;;;;;;41.05;17.65;;;6.30;99.90;;;;;;5059661;28;20116;-69
2022/01/26 05:48:17;;;;;;;40.65;16.10;;;6.30;99.90;;;;;;5036740;28;20132;-70
2022/01/26 05:50:52;;;;;;;39.50;17.17;;;6.20;99.90;;;;;;5051201;28;20108;-70
2022/01/26 05:53:21;;;;;;;41.30;17.30;;;6.20;99.90;;;;;;5056242;28;20104;-70
2022/01/26 05:55:56;;;;;;;43.15;19.13;;;6.20;99.90;;;;;;5045969;28;20051;-70
2022/01/26 05:58:21;;;;;;;43.22;17.92;;;6.20;99.90;;;;;;5042542;28;20033;-70
2022/01/26 06:00:47;;;;;;;49.42;19.23;;;6.20;99.90;;;;;;5042646;28;20078;-70
2022/01/26 06:03:13;;;;;;;46.97;18.23;;;6.20;99.90;;;;;;5055147;28;20025;-70
2022/01/26 06:05:39;;;;;;;47.20;19.42;;;6.20;99.90;;;;;;5039959;28;20036;-69
2022/01/26 06:08:05;;;;;;;43.78;19.17;;;6.20;99.90;;;;;;5035411;28;20037;-71
2022/01/26 06:10:31;;;;;;;58.10;24.23;;;6.20;99.90;;;;;;5036094;28;20098;-70
2022/01/26 06:12:57;;;;;;;48.15;19.17;;;6.20;99.90;;;;;;5039583;28;20487;-70
2022/01/26 06:15:22;;;;;;;47.75;19.10;;;6.20;99.90;;;;;;5053157;28;20064;-71
2022/01/26 06:17:48;;;;;;;45.17;19.77;;;6.20;99.90;;;;;;5054394;28;20078;-70
2022/01/26 06:20:14;;;;;;;48.78;19.98;;;6.10;99.90;;;;;;5053277;28;20101;-70
2022/01/26 06:22:40;;;;;;;49.50;20.50;;;6.10;99.90;;;;;;5053594;28;20090;-69
2022/01/26 06:25:07;;;;;;;49.53;20.70;;;6.00;99.90;;;;;;5045752;28;20111;-70
2022/01/26 06:27:35;;;;;;;57.20;23.73;;;6.00;99.90;;;;;;5054754;28;20032;-70
2022/01/26 06:30:01;;;;;;;54.28;22.00;;;6.00;99.90;;;;;;5052484;28;20044;-70
2022/01/26 06:32:28;;;;;;;56.10;21.33;;;5.90;99.90;;;;;;5053159;28;20033;-70
2022/01/26 06:34:54;;;;;;;54.63;21.40;;;5.90;99.90;;;;;;5054334;28;20083;-70
2022/01/26 06:37:20;;;;;;;57.25;22.38;;;5.90;99.90;;;;;;5047258;28;20033;-69
2022/01/26 06:39:45;;;;;;;54.58;20.90;;;5.90;99.90;;;;;;5035492;28;20032;-70
2022/01/26 06:42:14;;;;;;;57.15;20.58;;;5.80;99.90;;;;;;5034410;28;20041;-71
2022/01/26 06:44:56;;;;;;;56.53;24.17;;;5.80;99.90;;;;;;5033221;28;20091;-69
2022/01/26 06:47:48;;;;;;;59.95;22.50;;;5.80;99.90;;;;;;5038525;28;20467;-70
2022/01/26 06:50:13;;;;;;;57.47;22.27;;;5.80;99.90;;;;;;5054864;28;20041;-70
2022/01/26 06:52:43;;;;;;;57.20;22.45;;;5.80;99.90;;;;;;5054427;28;20265;-69
2022/01/26 06:55:09;;;;;;;56.33;20.50;;;5.80;99.90;;;;;;5061754;28;20461;-69
2022/01/26 06:57:35;;;;;;;57.03;22.17;;;5.80;99.90;;;;;;5058679;28;20463;-70
2022/01/26 07:00:01;;;;;;;63.33;21.55;;;5.80;99.90;;;;;;5061716;28;20032;-69
2022/01/26 07:02:26;;;;;;;59.40;22.35;;;5.80;99.90;;;;;;5067572;28;20470;-71
2022/01/26 07:04:52;;;;;;;63.47;22.73;;;5.80;99.90;;;;;;5060376;28;20040;-71
2022/01/26 07:07:17;;;;;;;49.92;19.55;;;5.80;99.90;;;;;;5073356;28;20060;-70
2022/01/26 07:09:43;;;;;;;49.55;18.80;;;5.80;99.90;;;;;;5073321;28;20024;-70
2022/01/26 07:12:09;;;;;;;50.05;18.88;;;5.70;99.90;;;;;;5053595;28;20100;-70
2022/01/26 07:22:34;;;;;;;47.35;19.08;;;5.80;99.90;;;;;;5053995;28;20043;-72
2022/01/26 07:25:00;;;;;;;45.95;17.48;;;5.80;99.90;;;;;;5054112;28;20459;-69
2022/01/26 07:27:25;;;;;;;46.63;18.25;;;5.80;99.90;;;;;;5054099;28;20048;-71
2022/01/26 07:29:51;;;;;;;64.97;29.20;;;5.80;99.90;;;;;;5053658;28;20100;-72
2022/01/26 07:32:17;;;;;;;48.22;20.45;;;5.90;99.90;;;;;;5053747;28;20095;-70
2022/01/26 07:34:44;;;;;;;46.45;19.10;;;5.90;99.90;;;;;;5053457;28;20024;-69
2022/01/26 07:37:13;;;;;;;48.28;19.58;;;5.90;99.90;;;;;;5053723;28;20074;-71
2022/01/26 07:40:00;;;;;;;45.67;18.55;;;5.90;99.90;;;;;;5035721;28;20032;-69
2022/01/26 07:42:26;;;;;;;42.75;17.83;;;5.90;99.90;;;;;;5053598;28;20028;-71
2022/01/26 07:44:51;;;;;;;47.22;20.38;;;6.00;99.90;;;;;;5053899;28;20091;-71
2022/01/26 07:47:17;;;;;;;45.67;18.95;;;6.00;99.90;;;;;;5032027;28;20059;-72
2022/01/26 07:49:43;;;;;;;46.97;20.30;;;6.00;99.90;;;;;;5053381;28;20114;-70
2022/01/26 07:52:08;;;;;;;47.88;18.42;;;6.00;99.90;;;;;;5052945;28;20029;-72
2022/01/26 07:54:34;;;;;;;51.05;17.98;;;6.10;99.90;;;;;;5053360;28;20021;-71
2022/01/26 07:57:01;;;;;;;48.67;18.50;;;6.10;99.90;;;;;;5053248;28;20021;-69
2022/01/26 07:59:27;;;;;;;48.95;19.08;;;6.10;99.90;;;;;;5052996;28;20025;-70
2022/01/26 08:01:53;;;;;;;52.00;20.38;;;6.10;99.90;;;;;;5052775;28;20466;-69
2022/01/26 08:04:18;;;;;;;49.53;19.77;;;6.10;99.90;;;;;;5052391;28;20021;-70
2022/01/26 08:06:44;;;;;;;52.35;20.10;;;6.00;99.90;;;;;;5053077;28;20027;-69
2022/01/26 08:09:11;;;;;;;48.58;17.75;;;6.00;99.90;;;;;;5053257;28;20370;-70
2022/01/26 08:11:37;;;;;;;51.08;18.30;;;6.00;99.90;;;;;;5053027;28;20032;-68
2022/01/26 08:14:02;;;;;;;49.42;18.42;;;5.90;99.90;;;;;;5052980;28;20036;-72
2022/01/26 08:16:28;;;;;;;45.75;17.63;;;6.00;99.90;;;;;;5053028;28;20041;-72
2022/01/26 08:18:54;;;;;;;46.95;19.60;;;6.00;99.90;;;;;;5052267;28;20021;-72
2022/01/26 08:21:20;;;;;;;63.75;24.55;;;6.00;99.90;;;;;;5052088;28;20435;-69
2022/01/26 08:23:47;;;;;;;50.00;19.38;;;6.10;99.90;;;;;;5052373;28;20025;-71
2022/01/26 08:26:14;;;;;;;38.53;15.90;;;6.10;99.90;;;;;;5052662;28;20043;-72
2022/01/26 08:28:42;;;;;;;50.83;19.15;;;6.10;99.90;;;;;;5052577;28;20102;-69
2022/01/26 08:31:08;;;;;;;43.92;17.90;;;6.10;99.90;;;;;;5052636;28;20027;-70
2022/01/26 08:33:34;;;;;;;51.13;18.70;;;6.10;99.90;;;;;;5052658;28;20037;-68
2022/01/26 08:36:00;;;;;;;39.75;16.13;;;6.10;99.90;;;;;;5052555;28;20036;-71
2022/01/26 08:38:26;;;;;;;43.25;15.63;;;6.20;99.90;;;;;;5034256;28;20367;-72
2022/01/26 08:40:52;;;;;;;43.38;16.90;;;6.20;99.90;;;;;;5052566;28;20021;-72
2022/01/26 08:43:17;;;;;;;38.42;15.07;;;6.20;99.90;;;;;;5034595;28;20029;-69
2022/01/26 08:45:44;;;;;;;45.90;16.73;;;6.30;99.90;;;;;;5052401;28;20037;-70
2022/01/26 08:48:11;;;;;;;45.70;16.27;;;6.30;99.90;;;;;;5052396;28;20371;-72
2022/01/26 08:50:36;;;;;;;39.40;14.50;;;6.30;99.90;;;;;;5052494;28;20205;-71
2022/01/26 08:53:02;;;;;;;42.05;16.60;;;6.30;99.90;;;;;;5052654;28;20601;-68
2022/01/26 08:55:28;;;;;;;47.75;16.67;;;6.20;99.90;;;;;;5052479;28;20116;-70
2022/01/26 08:57:54;;;;;;;43.47;16.95;;;6.20;99.90;;;;;;5052519;28;20481;-70
2022/01/26 09:00:20;;;;;;;46.90;17.63;;;6.20;99.90;;;;;;5052384;28;20025;-70
2022/01/26 09:02:47;;;;;;;42.10;16.35;;;6.20;99.90;;;;;;5052473;28;20029;-70
2022/01/26 09:05:13;;;;;;;41.20;16.63;;;6.20;99.90;;;;;;5052167;28;20021;-71
2022/01/26 09:07:43;;;;;;;42.30;17.05;;;6.30;99.90;;;;;;5052414;28;20023;-72
2022/01/26 09:10:09;;;;;;;41.45;17.65;;;6.30;99.90;;;;;;5052283;28;20126;-71
2022/01/26 09:12:38;;;;;;;41.90;16.40;;;6.30;99.90;;;;;;5052054;28;20029;-69
2022/01/26 09:15:06;;;;;;;35.05;14.70;;;6.40;99.90;;;;;;5052055;28;20043;-69
2022/01/26 09:17:33;;;;;;;46.30;17.65;;;6.40;99.90;;;;;;5052233;28;20025;-67
2022/01/26 09:20:00;;;;;;;45.13;16.58;;;6.40;99.90;;;;;;5052350;28;20477;-70
2022/01/26 09:22:26;;;;;;;39.65;16.48;;;6.50;99.90;;;;;;5052121;28;20029;-71
2022/01/26 09:24:52;;;;;;;43.28;16.77;;;6.50;99.90;;;;;;5052184;28;20455;-68
2022/01/26 09:27:18;;;;;;;44.78;17.73;;;6.50;99.90;;;;;;5052064;28;20111;-72
2022/01/26 09:29:46;;;;;;;44.63;18.83;;;6.50;99.90;;;;;;5051917;28;20128;-72
2022/01/26 09:32:12;;;;;;;46.40;19.00;;;6.60;99.90;;;;;;5051672;28;20028;-70
2022/01/26 09:34:38;;;;;;;42.47;17.40;;;6.50;99.90;;;;;;5051778;28;20166;-72
2022/01/26 09:37:06;;;;;;;42.05;18.95;;;6.60;99.90;;;;;;5054643;28;20060;-72
2022/01/26 09:39:32;;;;;;;45.38;18.38;;;6.70;99.90;;;;;;5055812;28;20017;-72
2022/01/26 09:41:59;;;;;;;42.85;17.17;;;6.70;99.90;;;;;;5053489;28;20489;-70
2022/01/26 09:44:24;;;;;;;47.42;18.77;;;6.80;99.90;;;;;;5055686;28;20486;-70
2022/01/26 09:46:50;;;;;;;43.78;18.20;;;6.80;99.90;;;;;;5037809;28;20021;-73
2022/01/26 09:49:17;;;;;;;38.97;15.45;;;6.80;99.90;;;;;;5055390;28;20056;-69
2022/01/26 09:51:47;;;;;;;41.00;17.02;;;6.90;99.90;;;;;;5055524;28;20025;-68
2022/01/26 09:54:15;;;;;;;38.05;16.45;;;7.00;99.90;;;;;;5055827;28;20233;-69
2022/01/26 09:56:51;;;;;;;39.00;17.20;;;7.00;99.90;;;;;;5055366;28;20136;-71
2022/01/26 09:59:19;;;;;;;29.80;15.18;;;7.10;99.90;;;;;;5055170;28;20143;-68
2022/01/26 10:01:49;;;;;;;35.47;14.90;;;7.20;99.90;;;;;;5053278;28;20021;-68
2022/01/26 10:04:35;;;;;;;33.08;13.45;;;7.20;99.90;;;;;;5054559;28;20029;-69
2022/01/26 10:07:14;;;;;;;31.73;13.57;;;7.30;99.90;;;;;;5054302;28;20040;-72
2022/01/26 10:09:55;;;;;;;33.65;14.35;;;7.30;99.90;;;;;;5053296;28;20044;-69
2022/01/26 10:18:08;;;;;;;32.47;13.77;;;7.40;99.90;;;;;;5039798;28;20132;-70
2022/01/26 10:21:03;;;;;;;30.25;13.45;;;7.40;99.90;;;;;;5054636;28;20029;-70
2022/01/26 10:23:41;;;;;;;35.72;14.65;;;7.50;99.90;;;;;;5052228;28;20124;-71
2022/01/26 10:26:07;;;;;;;29.13;13.70;;;7.60;99.90;;;;;;5054969;28;20035;-70
2022/01/26 10:29:05;;;;;;;32.33;14.02;;;7.70;99.90;;;;;;5054993;28;20025;-71
2022/01/26 10:31:39;;;;;;;33.72;13.38;;;7.70;99.90;;;;;;5054437;28;20044;-69
2022/01/26 10:34:22;;;;;;;29.83;12.75;;;7.80;99.90;;;;;;5054654;28;20029;-68
2022/01/26 10:37:00;;;;;;;36.05;13.63;;;7.80;99.90;;;;;;5054032;28;20052;-71
2022/01/26 10:39:36;;;;;;;34.15;14.60;;;7.90;99.90;;;;;;5054870;28;20025;-71
2022/01/26 10:42:06;;;;;;;36.45;15.77;;;7.90;99.90;;;;;;5054879;28;20029;-69
2022/01/26 10:47:35;;;;;;;31.23;13.82;;;7.90;99.90;;;;;;5040562;28;20479;-71
2022/01/26 10:50:29;;;;;;;39.13;14.15;;;7.90;99.90;;;;;;5052830;28;20044;-71
2022/01/26 10:52:55;;;;;;;33.80;12.98;;;7.90;99.90;;;;;;5053446;28;20037;-71
2022/01/26 10:55:22;;;;;;;35.55;13.63;;;8.00;99.90;;;;;;5053809;28;20017;-72
2022/01/26 10:57:48;;;;;;;31.52;13.43;;;8.00;99.90;;;;;;5053951;28;20518;-71
2022/01/26 11:00:14;;;;;;;27.25;11.93;;;8.00;99.90;;;;;;5035966;28;20119;-70
2022/01/26 11:02:41;;;;;;;30.95;12.50;;;8.10;99.90;;;;;;5054004;28;20126;-69
2022/01/26 11:05:08;;;;;;;34.78;12.90;;;8.10;99.90;;;;;;5053928;28;20067;-71
2022/01/26 11:07:40;;;;;;;29.35;13.05;;;8.10;99.90;;;;;;5053938;28;20431;-72
2022/01/26 11:10:07;;;;;;;33.58;13.75;;;8.20;99.90;;;;;;5054129;28;20029;-69
2022/01/26 11:12:37;;;;;;;32.03;13.45;;;8.20;99.90;;;;;;5035772;28;20123;-72
2022/01/26 11:15:15;;;;;;;30.73;12.57;;;8.30;99.90;;;;;;5053771;28;20074;-71
2022/01/26 11:17:46;;;;;;;32.00;13.23;;;8.40;99.90;;;;;;5053748;28;20033;-72
2022/01/26 11:20:33;;;;;;;32.35;13.63;;;8.60;99.90;;;;;;5054126;28;20032;-70
2022/01/26 11:23:31;;;;;;;31.88;12.30;;;8.70;99.90;;;;;;5035450;28;20028;-69
2022/01/26 11:25:57;;;;;;;34.47;13.13;;;8.80;99.90;;;;;;5053586;28;20450;-71
2022/01/26 11:28:25;;;;;;;35.03;13.82;;;8.80;99.90;;;;;;5053568;28;20032;-69
2022/01/26 11:30:52;;;;;;;33.83;13.30;;;8.90;99.90;;;;;;5056516;28;20096;-71
2022/01/26 11:33:22;;;;;;;40.97;16.02;;;8.90;99.90;;;;;;5038178;28;20024;-68
2022/01/26 11:35:50;;;;;;;35.20;14.57;;;8.90;99.90;;;;;;5054068;28;20033;-68
2022/01/26 11:46:51;;;;;;;29.63;13.93;;;9.00;99.90;;;;;;5054633;28;20041;-70
2022/01/26 11:49:24;;;;;;;33.30;14.18;;;9.00;99.90;;;;;;5053905;28;20041;-71
2022/01/26 11:51:52;;;;;;;33.22;13.73;;;9.10;99.90;;;;;;5054669;28;20033;-71
2022/01/26 11:54:24;;;;;;;31.55;13.13;;;9.10;99.90;;;;;;5053059;28;20029;-71
2022/01/26 11:57:07;;;;;;;37.17;13.38;;;9.10;99.90;;;;;;5048158;28;20064;-72
2022/01/26 11:59:35;;;;;;;34.47;14.75;;;9.10;99.90;;;;;;5034498;28;20019;-72
2022/01/26 12:02:09;;;;;;;31.83;15.13;;;9.10;99.90;;;;;;5051973;28;20100;-70
2022/01/26 12:04:37;;;;;;;37.80;14.15;;;9.10;99.90;;;;;;5052595;28;20021;-70
2022/01/26 12:07:11;;;;;;;34.58;13.77;;;9.10;99.90;;;;;;5052959;28;20103;-70
2022/01/26 12:09:41;;;;;;;31.73;13.27;;;9.10;99.90;;;;;;5053078;28;20459;-70
2022/01/26 12:12:08;;;;;;;26.15;12.25;;;9.10;99.90;;;;;;5053036;28;20024;-69
2022/01/26 12:14:34;;;;;;;30.77;13.13;;;9.10;99.90;;;;;;5052800;28;20021;-69
2022/01/26 12:17:04;;;;;;;30.00;12.05;;;9.10;99.90;;;;;;5051854;28;20075;-69
2022/01/26 12:19:36;;;;;;;31.88;12.75;;;9.10;99.90;;;;;;5052598;28;20039;-68
2022/01/26 12:36:23;;;;;;;30.38;12.82;;;8.90;99.90;;;;;;5052432;28;20083;-71
2022/01/26 12:39:01;;;;;;;30.20;12.00;;;8.90;99.90;;;;;;5052755;28;20025;-72
2022/01/26 12:41:33;;;;;;;37.28;14.25;;;8.90;99.90;;;;;;5052739;28;20412;-68
2022/01/26 12:44:06;;;;;;;27.45;10.80;;;8.90;99.90;;;;;;5034732;28;20443;-70
2022/01/26 12:46:34;;;;;;;26.10;10.88;;;9.00;99.90;;;;;;5052019;28;20088;-72
2022/01/26 12:49:06;;;;;;;27.73;10.55;;;9.00;99.90;;;;;;5050357;28;20145;-72
2022/01/26 12:51:48;;;;;;;34.97;11.73;;;9.00;99.90;;;;;;5051841;28;20029;-68
2022/01/26 12:54:14;;;;;;;23.67;9.73;;;9.00;99.90;;;;;;5052454;28;20025;-72
2022/01/26 12:56:40;;;;;;;27.83;10.18;;;9.00;99.90;;;;;;5034018;28;20048;-70
2022/01/26 12:59:07;;;;;;;27.50;11.27;;;9.00;99.90;;;;;;5052078;28;20736;-71
2022/01/26 13:01:33;;;;;;;27.05;10.93;;;9.00;99.90;;;;;;5052215;28;20021;-70
2022/01/26 13:04:01;;;;;;;28.17;10.30;;;9.10;99.90;;;;;;5052139;28;20037;-71
2022/01/26 13:06:37;;;;;;;25.05;10.10;;;9.10;99.90;;;;;;5052418;28;20025;-68
2022/01/26 13:09:26;;;;;;;28.67;10.98;;;9.10;99.90;;;;;;5052436;28;20025;-69
2022/01/26 13:11:54;;;;;;;25.13;10.77;;;9.10;99.90;;;;;;5041481;28;20067;-71
2022/01/26 13:15:02;;;;;;;25.23;10.60;;;9.20;99.90;;;;;;5056296;28;20057;-70
2022/01/26 13:20:14;;;;;;;29.73;11.27;;;9.20;99.90;;;;;;5056054;28;20040;-72
2022/01/26 13:25:37;;;;;;;29.20;11.75;;;9.20;99.90;;;;;;5056109;28;20039;-70
2022/01/26 13:46:17;;;;;;;24.80;9.57;;;9.20;99.90;;;;;;5055723;28;20159;-72
2022/01/26 13:51:23;;;;;;;24.60;8.90;;;9.20;99.90;;;;;;5054990;28;20035;-71
2022/01/26 13:54:10;;;;;;;27.20;9.88;;;9.10;99.90;;;;;;5037666;28;20463;-72
2022/01/26 13:59:54;;;;;;;25.20;8.80;;;9.10;99.90;;;;;;5055039;28;20029;-72
2022/01/26 14:02:11;;;;;;;26.15;9.18;;;9.20;99.90;;;;;;5050852;28;20048;-69
2022/01/26 14:04:37;;;;;;;21.73;7.97;;;9.20;99.90;;;;;;5055560;28;20047;-72
2022/01/26 14:07:03;;;;;;;27.40;8.85;;;9.20;99.90;;;;;;5055132;28;20066;-69
2022/01/26 14:09:28;;;;;;;23.67;8.27;;;9.20;99.90;;;;;;5055422;28;20131;-72
2022/01/26 14:11:54;;;;;;;22.23;8.48;;;9.20;99.90;;;;;;5055442;28;20029;-72
2022/01/26 14:14:32;;;;;;;20.67;7.57;;;9.30;99.90;;;;;;5055319;28;20113;-73
2022/01/26 14:17:01;;;;;;;24.65;8.05;;;9.40;99.90;;;;;;5055074;28;20041;-71
2022/01/26 14:19:39;;;;;;;21.52;7.68;;;9.40;99.90;;;;;;5054676;28;20374;-70
2022/01/26 14:27:06;;;;;;;21.85;8.02;;;9.40;99.90;;;;;;5054857;28;20044;-71
2022/01/26 14:40:08;;;;;;;28.25;9.27;;;9.10;99.90;;;;;;5054719;28;20454;-68
2022/01/26 14:50:58;;;;;;;26.15;9.82;;;9.10;99.90;;;;;;5014602;28;20044;-71
2022/01/26 15:10:57;;;;;;;29.45;11.05;;;8.90;99.90;;;;;;5014365;28;20073;-72
2022/01/26 15:42:40;;;;;;;31.10;11.65;;;8.20;99.90;;;;;;5013461;28;20495;-71
2022/01/26 16:06:24;;;;;;;32.35;10.20;;;8.20;99.90;;;;;;5033332;28;20032;-70
2022/01/26 16:20:06;;;;;;;30.20;10.43;;;8.10;99.90;;;;;;5033075;28;20044;-68
2022/01/26 17:21:14;;;;;;;37.65;11.82;;;7.40;99.90;;;;;;5071997;28;20108;-69
2022/01/26 18:26:15;;;;;;;21.67;7.55;;;7.70;99.90;;;;;;5054598;28;20032;-68
2022/01/26 18:50:09;;;;;;;22.92;6.80;;;7.90;99.90;;;;;;5074692;28;20091;-68
2022/01/26 18:52:37;;;;;;;22.38;7.43;;;7.90;99.90;;;;;;5057093;28;20056;-68
2022/01/26 18:55:03;;;;;;;23.15;7.22;;;7.90;99.90;;;;;;5058984;28;20020;-68
2022/01/26 18:57:28;;;;;;;25.73;7.20;;;7.90;99.90;;;;;;5062135;28;20044;-68
2022/01/26 18:59:54;;;;;;;21.52;7.70;;;7.90;99.90;;;;;;5065317;28;20356;-69
2022/01/26 19:02:23;;;;;;;21.75;7.15;;;7.90;99.90;;;;;;5060140;28;20024;-69
2022/01/26 19:04:49;;;;;;;23.67;7.30;;;7.90;99.90;;;;;;5073560;28;20024;-68
2022/01/26 19:07:15;;;;;;;25.50;7.57;;;7.90;99.90;;;;;;5073849;28;20047;-69
2022/01/26 19:09:45;;;;;;;22.63;8.27;;;7.90;99.90;;;;;;5073498;28;20426;-68
2022/01/26 19:12:14;;;;;;;23.33;7.10;;;7.90;99.90;;;;;;5073939;28;20020;-67
2022/01/26 19:14:46;;;;;;;24.25;7.28;;;7.90;99.90;;;;;;5073831;28;20028;-68
2022/01/26 19:17:59;;;;;;;25.85;7.97;;;7.90;99.90;;;;;;5065319;28;20132;-69
2022/01/26 19:20:31;;;;;;;28.92;8.00;;;7.90;99.90;;;;;;5044440;28;20043;-68
2022/01/26 19:23:07;;;;;;;24.65;7.53;;;7.90;99.90;;;;;;5053523;28;20395;-70